createdAt,value
2018-07-02T00:00:42.094Z,98988.17
2018-07-02T00:03:10.689Z,98988.42
2018-07-02T00:06:50.321Z,98984.59
2018-07-02T00:09:18.908Z,98974.61
2018-07-02T00:11:47.464Z,98974.15
2018-07-02T00:14:16.040Z,98974.86
2018-07-02T00:16:44.577Z,98969.73
2018-07-02T00:19:13.159Z,98973.21
2018-07-02T00:21:41.699Z,98972.11
2018-07-02T00:24:10.285Z,98974.41
2018-07-02T00:26:38.820Z,98981.73
2018-07-02T00:29:07.532Z,98976.77
2018-07-02T00:31:37.226Z,98933.28
2018-07-02T00:34:05.946Z,98984.02
2018-07-02T00:36:34.801Z,98978.86
2018-07-02T00:39:03.973Z,98986.55
2018-07-02T00:41:32.529Z,98987.50
2018-07-02T00:44:01.121Z,98987.22
2018-07-02T00:46:29.670Z,98987.97
2018-07-02T00:48:58.487Z,98992.66
2018-07-02T00:51:27.053Z,98995.69
2018-07-02T00:53:55.710Z,98992.88
2018-07-02T00:56:24.808Z,99005.39
2018-07-02T00:58:53.392Z,99006.73
2018-07-02T01:01:22.301Z,99011.59
2018-07-02T01:03:51.090Z,99009.97
2018-07-02T01:06:19.641Z,99012.41
2018-07-02T01:08:48.269Z,99011.75
2018-07-02T01:11:16.832Z,99012.91
2018-07-02T01:13:45.388Z,99003.97
2018-07-02T01:16:13.989Z,99001.44
2018-07-02T01:18:42.540Z,99004.38
2018-07-02T01:21:11.136Z,99008.64
2018-07-02T01:23:39.772Z,99008.97
2018-07-02T01:26:08.643Z,99013.83
2018-07-02T01:28:37.476Z,99011.02
2018-07-02T01:31:06.444Z,99008.20
2018-07-02T01:33:35.191Z,99002.39
2018-07-02T01:36:04.010Z,99003.33
2018-07-02T01:38:33.276Z,99005.92
2018-07-02T01:41:01.921Z,99004.78
2018-07-02T01:43:32.020Z,99002.89
2018-07-02T01:46:00.608Z,98990.47
2018-07-02T01:48:29.208Z,98981.47
2018-07-02T01:50:58.217Z,98983.05
2018-07-02T01:53:27.321Z,98989.61
2018-07-02T01:55:56.224Z,98984.42
2018-07-02T01:58:25.017Z,98985.84
2018-07-02T02:00:53.964Z,98976.08
2018-07-02T02:03:23.401Z,98970.94
2018-07-02T02:05:53.944Z,98968.78
2018-07-02T02:08:22.718Z,98978.95
2018-07-02T02:10:51.316Z,98976.56
2018-07-02T02:13:19.860Z,98985.53
2018-07-02T02:15:48.424Z,98978.36
2018-07-02T02:18:16.968Z,98974.53
2018-07-02T02:20:45.511Z,98975.36
2018-07-02T02:23:14.079Z,98982.33
2018-07-02T02:25:42.640Z,98982.80
2018-07-02T02:28:11.169Z,98983.47
2018-07-02T02:30:39.704Z,98984.12
2018-07-02T02:33:08.229Z,98972.82
2018-07-02T02:35:37.720Z,98970.02
2018-07-02T02:38:06.524Z,98972.61
2018-07-02T02:40:35.098Z,98977.60
2018-07-02T02:43:03.641Z,98980.09
2018-07-02T02:45:32.176Z,98974.78
2018-07-02T02:48:00.737Z,98982.66
2018-07-02T02:50:29.267Z,98979.13
2018-07-02T02:52:57.844Z,98984.22
2018-07-02T02:55:26.352Z,98989.19
2018-07-02T02:57:54.906Z,98987.04
2018-07-02T03:00:23.440Z,98998.69
2018-07-02T03:02:51.982Z,98993.31
2018-07-02T03:05:20.514Z,98995.93
2018-07-02T03:07:49.068Z,98996.76
2018-07-02T03:10:17.636Z,98994.28
2018-07-02T03:12:46.205Z,99000.84
2018-07-02T03:15:14.741Z,99007.08
2018-07-02T03:17:43.305Z,99008.09
2018-07-02T03:20:11.876Z,99010.23
2018-07-02T03:22:40.741Z,99009.08
2018-07-02T03:25:09.314Z,99005.15
2018-07-02T03:27:37.972Z,99010.22
2018-07-02T03:30:06.716Z,99001.05
2018-07-02T03:32:35.272Z,99005.27
2018-07-02T03:35:03.937Z,99004.36
2018-07-02T03:37:32.508Z,99004.91
2018-07-02T03:40:01.032Z,99003.95
2018-07-02T03:42:29.619Z,99013.74
2018-07-02T03:44:58.169Z,99012.00
2018-07-02T03:47:26.757Z,99021.38
2018-07-02T03:49:55.278Z,99021.89
2018-07-02T03:52:23.930Z,99023.57
2018-07-02T03:54:52.472Z,99031.09
2018-07-02T03:57:21.044Z,99027.59
2018-07-02T03:59:49.679Z,99027.88
2018-07-02T04:02:18.216Z,99037.86
2018-07-02T04:04:46.796Z,99032.02
2018-07-02T04:07:15.341Z,99019.73
2018-07-02T04:09:44.397Z,99026.04
2018-07-02T04:12:12.980Z,99019.19
2018-07-02T04:14:41.524Z,99022.31
2018-07-02T04:17:10.065Z,99021.19
2018-07-02T04:19:38.669Z,99016.92
2018-07-02T04:22:08.109Z,99011.00
2018-07-02T04:24:36.683Z,99009.36
2018-07-02T04:27:05.706Z,99010.08
2018-07-02T04:29:34.293Z,99009.81
2018-07-02T04:32:02.904Z,99005.34
2018-07-02T04:34:31.464Z,99007.50
2018-07-02T04:36:59.996Z,99015.86
2018-07-02T04:39:29.281Z,99014.25
2018-07-02T04:41:57.901Z,99012.98
2018-07-02T04:44:26.468Z,99005.67
2018-07-02T04:46:55.048Z,99000.79
2018-07-02T04:49:23.621Z,99009.38
2018-07-02T04:51:52.141Z,99003.63
2018-07-02T04:54:20.716Z,99001.38
2018-07-02T04:56:50.036Z,99001.84
2018-07-02T04:59:18.960Z,98999.84
2018-07-02T05:01:47.505Z,99006.01
2018-07-02T05:04:16.344Z,99009.11
2018-07-02T05:06:44.857Z,99000.98
2018-07-02T05:09:13.620Z,99018.25
2018-07-02T05:11:42.137Z,99020.83
2018-07-02T05:14:10.684Z,99019.45
2018-07-02T05:16:39.245Z,99023.69
2018-07-02T05:19:08.453Z,99028.89
2018-07-02T05:21:36.988Z,99025.48
2018-07-02T05:24:05.521Z,99033.73
2018-07-02T05:26:34.076Z,99029.57
2018-07-02T05:29:02.648Z,99043.59
2018-07-02T05:31:31.294Z,99039.00
2018-07-02T05:34:00.212Z,99047.08
2018-07-02T05:36:28.776Z,99047.07
2018-07-02T05:38:57.303Z,99050.27
2018-07-02T05:41:25.911Z,99045.59
2018-07-02T05:43:54.411Z,99039.90
2018-07-02T05:46:23.323Z,99049.57
2018-07-02T05:48:56.384Z,99060.42
2018-07-02T05:51:24.948Z,99053.47
2018-07-02T05:53:53.461Z,99058.59
2018-07-02T05:56:22.053Z,99059.12
2018-07-02T05:58:50.611Z,99052.50
2018-07-02T06:01:19.320Z,99047.64
2018-07-02T06:03:48.056Z,99043.80
2018-07-02T06:06:16.980Z,99045.51
2018-07-02T06:08:45.545Z,99050.67
2018-07-02T06:11:14.088Z,99046.38
2018-07-02T06:13:42.588Z,99046.38
2018-07-02T06:16:11.265Z,99054.88
2018-07-02T06:18:39.765Z,99056.81
2018-07-02T06:21:10.829Z,99058.13
2018-07-02T06:23:39.371Z,99055.84
2018-07-02T06:26:07.896Z,99053.41
2018-07-02T06:28:36.396Z,99057.33
2018-07-02T06:31:05.301Z,99061.47
2018-07-02T06:33:36.669Z,99063.63
2018-07-02T06:36:05.226Z,99071.81
2018-07-02T06:38:33.708Z,99066.80
2018-07-02T06:41:02.480Z,99072.60
2018-07-02T06:43:31.848Z,99073.13
2018-07-02T06:46:00.417Z,99080.91
2018-07-02T06:48:28.960Z,99071.05
2018-07-02T06:50:57.461Z,99072.92
2018-07-02T06:53:25.992Z,99069.44
2018-07-02T06:55:54.529Z,99064.79
2018-07-02T06:58:23.030Z,99065.81
2018-07-02T07:00:51.577Z,99063.66
2018-07-02T07:03:20.086Z,99061.91
2018-07-02T07:05:48.634Z,99050.58
2018-07-02T07:08:17.272Z,99061.39
2018-07-02T07:10:45.985Z,99063.13
2018-07-02T07:13:17.799Z,99061.73
2018-07-02T07:15:47.069Z,99050.75
2018-07-02T07:18:16.129Z,99052.43
2018-07-02T07:20:44.725Z,99060.93
2018-07-02T07:23:14.559Z,99059.77
2018-07-02T07:25:43.220Z,99014.09
2018-07-02T07:28:11.728Z,99064.63
2018-07-02T07:30:40.349Z,99071.83
2018-07-02T07:33:08.890Z,99063.66
2018-07-02T07:35:37.417Z,99065.88
2018-07-02T07:38:06.008Z,99065.87
2018-07-02T07:40:35.259Z,99065.89
2018-07-02T07:43:05.820Z,99064.37
2018-07-02T07:45:34.423Z,99064.25
2018-07-02T07:48:03.588Z,99066.58
2018-07-02T07:50:32.140Z,99060.77
2018-07-02T07:53:02.440Z,99073.24
2018-07-02T07:55:31.060Z,99070.92
2018-07-02T07:58:00.418Z,99068.89
2018-07-02T08:00:30.216Z,99070.06
2018-07-02T08:02:59.060Z,99070.23
2018-07-02T08:05:29.288Z,99071.87
2018-07-02T08:07:57.850Z,99068.53
2018-07-02T08:10:26.450Z,99078.52
2018-07-02T08:12:54.993Z,99080.53
2018-07-02T08:15:23.500Z,99076.50
2018-07-02T08:17:52.380Z,99075.83
2018-07-02T08:20:20.882Z,99073.76
2018-07-02T08:22:50.848Z,99075.92
2018-07-02T08:25:19.433Z,99079.28
2018-07-02T08:27:48.278Z,99069.23
2018-07-02T08:30:16.891Z,99071.70
2018-07-02T08:32:45.430Z,99068.31
2018-07-02T08:35:19.205Z,99070.08
2018-07-02T08:37:52.262Z,99064.39
2018-07-02T08:40:28.648Z,99077.00
2018-07-02T08:43:00.707Z,99076.00
2018-07-02T08:45:33.894Z,99075.92
2018-07-02T08:48:04.827Z,99073.23
2018-07-02T08:50:35.998Z,99068.75
2018-07-02T08:53:06.071Z,99079.28
2018-07-02T08:55:39.679Z,99080.57
2018-07-02T08:58:08.378Z,99081.39
2018-07-02T09:00:42.951Z,99073.45
2018-07-02T09:03:17.243Z,99067.98
2018-07-02T09:05:51.643Z,99081.02
2018-07-02T09:08:20.934Z,99077.95
2018-07-02T09:10:55.976Z,99080.25
2018-07-02T09:13:29.613Z,99081.17
2018-07-02T09:16:00.158Z,99087.39
2018-07-02T09:18:30.209Z,99095.61
2018-07-02T09:21:08.092Z,99095.81
2018-07-02T09:23:41.653Z,99097.37
2018-07-02T09:32:17.327Z,99095.34
2018-07-02T09:34:49.190Z,99094.33
2018-07-02T09:37:24.066Z,99096.23
2018-07-02T09:39:52.736Z,99092.17
2018-07-02T09:42:25.143Z,99103.56
2018-07-02T09:44:58.683Z,99100.58
2018-07-02T09:47:28.284Z,99099.28
2018-07-02T09:49:57.437Z,99101.19
2018-07-02T09:52:29.884Z,99094.74
2018-07-02T09:55:01.920Z,99096.05
2018-07-02T09:57:33.192Z,99102.34
2018-07-02T10:00:02.165Z,99099.41
2018-07-02T10:02:35.109Z,99098.73
2018-07-02T10:05:08.425Z,99088.75
2018-07-02T10:07:39.168Z,99097.64
2018-07-02T10:10:10.990Z,99101.87
2018-07-02T10:12:40.344Z,99104.42
2018-07-02T10:15:14.730Z,99099.42
2018-07-02T10:17:46.511Z,99097.86
2018-07-02T10:20:17.692Z,99096.59
2018-07-02T10:22:46.185Z,99098.58
2018-07-02T10:25:14.729Z,99101.84
2018-07-02T10:27:43.230Z,99093.73
2018-07-02T10:30:11.793Z,99103.25
2018-07-02T10:32:42.075Z,99098.36
2018-07-02T10:35:15.340Z,99102.25
2018-07-02T10:37:47.837Z,99099.89
2018-07-02T10:40:18.076Z,99092.38
2018-07-02T10:42:48.724Z,99096.74
2018-07-02T10:45:19.778Z,99093.61
2018-07-02T10:47:53.058Z,99092.51
2018-07-02T10:50:25.122Z,99102.55
2018-07-02T10:52:56.299Z,99103.95
2018-07-02T10:55:25.280Z,99110.39
2018-07-02T10:57:56.923Z,99105.92
2018-07-02T11:00:25.664Z,99108.52
2018-07-02T11:02:55.257Z,99109.28
2018-07-02T11:05:23.876Z,99109.39
2018-07-02T11:07:53.240Z,99105.41
2018-07-02T11:10:22.355Z,99108.50
2018-07-02T11:12:51.249Z,99109.39
2018-07-02T11:15:26.223Z,99115.72
2018-07-02T11:17:59.093Z,99106.86
2018-07-02T11:20:31.097Z,99107.16
2018-07-02T11:23:04.002Z,99111.94
2018-07-02T11:25:34.251Z,99106.66
2018-07-02T11:28:05.869Z,99106.95
2018-07-02T11:30:35.576Z,99114.91
2018-07-02T11:33:04.213Z,99109.64
2018-07-02T11:35:32.745Z,99100.60
2018-07-02T11:38:01.237Z,99093.67
2018-07-02T11:40:29.989Z,99095.20
2018-07-02T11:42:58.491Z,99086.73
2018-07-02T11:45:27.069Z,99081.52
2018-07-02T11:47:55.566Z,99078.17
2018-07-02T11:50:24.147Z,99075.64
2018-07-02T11:52:52.644Z,99069.89
2018-07-02T11:55:21.204Z,99070.09
2018-07-02T11:57:49.729Z,99077.69
2018-07-02T12:00:18.372Z,99078.83
2018-07-02T12:02:46.871Z,99065.97
2018-07-02T12:05:15.412Z,99077.16
2018-07-02T12:07:43.923Z,99077.31
2018-07-02T12:10:12.484Z,99082.42
2018-07-02T12:12:41.475Z,99093.66
2018-07-02T12:15:10.011Z,99082.42
2018-07-02T12:17:38.517Z,99085.56
2018-07-02T12:20:07.045Z,99081.61
2018-07-02T12:22:35.573Z,99074.47
2018-07-02T12:25:04.448Z,99076.22
2018-07-02T12:27:33.561Z,99075.19
2018-07-02T12:30:06.250Z,99076.33
2018-07-02T12:32:34.738Z,99072.50
2018-07-02T12:35:03.673Z,99071.34
2018-07-02T12:37:32.161Z,99074.24
2018-07-02T12:40:00.973Z,99079.28
2018-07-02T12:42:29.482Z,99088.00
2018-07-02T12:44:58.026Z,99090.42
2018-07-02T12:47:26.513Z,99082.09
2018-07-02T12:49:55.007Z,99065.63
2018-07-02T12:52:23.570Z,99052.20
2018-07-02T12:54:52.058Z,99044.25
2018-07-02T12:57:20.594Z,99050.48
2018-07-02T12:59:49.265Z,99055.91
2018-07-02T13:02:17.855Z,99055.54
2018-07-02T13:04:46.345Z,99046.89
2018-07-02T13:07:15.084Z,99040.52
2018-07-02T13:09:43.737Z,99040.67
2018-07-02T13:12:12.285Z,99059.16
2018-07-02T13:14:41.967Z,99067.94
2018-07-02T13:17:10.887Z,99054.09
2018-07-02T13:19:39.548Z,99055.59
2018-07-02T13:22:08.416Z,99057.75
2018-07-02T13:24:41.678Z,99062.90
2018-07-02T13:27:10.357Z,99063.72
2018-07-02T13:29:38.881Z,99056.97
2018-07-02T13:32:07.508Z,99055.02
2018-07-02T13:34:36.033Z,99059.85
2018-07-02T13:37:04.617Z,99061.12
2018-07-02T13:39:33.280Z,99062.33
2018-07-02T13:42:01.813Z,99051.81
2018-07-02T13:44:30.320Z,99045.09
2018-07-02T13:46:59.957Z,99049.05
2018-07-02T13:49:28.504Z,99057.83
2018-07-02T13:51:57.064Z,99068.63
2018-07-02T13:54:25.816Z,99064.27
2018-07-02T13:56:54.377Z,99050.55
2018-07-02T13:59:22.953Z,99056.26
2018-07-02T14:01:51.528Z,99063.52
2018-07-02T14:04:20.040Z,99068.30
2018-07-02T14:06:48.599Z,99056.53
2018-07-02T14:09:17.985Z,99051.49
2018-07-02T14:11:46.571Z,99056.96
2018-07-02T14:14:15.106Z,99064.52
2018-07-02T14:16:43.854Z,99049.07
2018-07-02T14:19:12.363Z,99034.33
2018-07-02T14:21:40.904Z,99042.85
2018-07-02T14:24:11.626Z,99055.70
2018-07-02T14:26:40.265Z,99053.56
2018-07-02T14:29:08.762Z,99043.55
2018-07-02T14:31:37.296Z,99045.55
2018-07-02T14:34:05.821Z,99054.04
2018-07-02T14:36:34.350Z,99055.63
2018-07-02T14:39:03.075Z,99053.45
2018-07-02T14:41:31.620Z,99049.18
2018-07-02T14:44:00.121Z,99056.39
2018-07-02T14:46:28.659Z,99054.73
2018-07-02T14:48:57.148Z,99056.25
2018-07-02T14:51:25.641Z,99055.42
2018-07-02T14:53:54.181Z,99048.44
2018-07-02T14:56:22.697Z,99045.00
2018-07-02T14:58:51.312Z,99042.10
2018-07-02T15:01:19.804Z,99042.20
2018-07-02T15:03:48.588Z,99050.23
2018-07-02T15:06:17.104Z,99047.81
2018-07-02T15:08:45.636Z,99033.93
2018-07-02T15:11:15.238Z,99011.06
2018-07-02T15:13:43.780Z,99038.47
2018-07-02T15:16:12.357Z,99038.02
2018-07-02T15:18:40.921Z,99048.52
2018-07-02T15:21:09.434Z,99045.36
2018-07-02T15:23:38.317Z,99044.52
2018-07-02T15:26:06.840Z,99037.03
2018-07-02T15:28:35.388Z,99038.23
2018-07-02T15:31:03.908Z,99038.72
2018-07-02T15:33:32.468Z,99042.97
2018-07-02T15:36:01.268Z,99043.88
2018-07-02T15:38:29.827Z,99045.55
2018-07-02T15:40:58.384Z,99041.12
2018-07-02T15:43:26.936Z,99032.61
2018-07-02T15:45:55.457Z,99035.84
2018-07-02T15:48:24.013Z,99035.48
2018-07-02T15:50:53.775Z,99034.56
2018-07-02T15:53:22.330Z,99034.81
2018-07-02T15:55:50.853Z,99033.83
2018-07-02T15:58:19.396Z,99035.08
2018-07-02T16:00:47.974Z,99033.84
2018-07-02T16:03:16.749Z,99036.11
2018-07-02T16:05:46.111Z,99031.90
2018-07-02T16:08:18.238Z,99031.38
2018-07-02T16:10:46.863Z,99030.36
2018-07-02T16:13:15.645Z,99029.65
2018-07-02T16:15:44.165Z,99021.52
2018-07-02T16:18:12.741Z,99015.66
2018-07-02T16:20:41.273Z,99025.63
2018-07-02T16:23:10.100Z,99026.06
2018-07-02T16:25:42.682Z,99027.94
2018-07-02T16:28:11.945Z,99024.27
2018-07-02T16:30:40.494Z,99030.11
2018-07-02T16:33:09.137Z,99026.55
2018-07-02T16:35:37.967Z,99021.69
2018-07-02T16:38:07.193Z,99027.09
2018-07-02T16:40:36.021Z,99024.84
2018-07-02T16:43:04.945Z,99019.02
2018-07-02T16:45:33.501Z,99015.20
2018-07-02T16:48:02.108Z,99024.71
2018-07-02T16:50:30.956Z,99039.16
2018-07-02T16:52:59.537Z,99040.18
2018-07-02T16:55:28.129Z,99045.87
2018-07-02T16:57:57.224Z,99038.98
2018-07-02T17:00:25.902Z,99041.23
2018-07-02T17:02:54.482Z,99043.30
2018-07-02T17:05:23.104Z,99045.50
2018-07-02T17:07:51.816Z,99048.50
2018-07-02T17:10:20.585Z,99043.30
2018-07-02T17:12:49.348Z,99047.36
2018-07-02T17:15:19.538Z,99053.95
2018-07-02T17:17:48.064Z,99052.26
2018-07-02T17:20:16.632Z,99051.20
2018-07-02T17:22:45.230Z,99051.21
2018-07-02T17:25:14.365Z,99057.86
2018-07-02T17:27:43.101Z,99056.52
2018-07-02T17:30:14.289Z,99061.87
2018-07-02T17:32:42.888Z,99061.95
2018-07-02T17:35:12.140Z,99060.19
2018-07-02T17:37:41.412Z,99064.97
2018-07-02T17:40:10.225Z,99067.96
2018-07-02T17:42:39.098Z,99065.88
2018-07-02T17:45:07.668Z,99072.72
2018-07-02T17:47:36.254Z,99074.86
2018-07-02T17:50:05.032Z,99073.95
2018-07-02T17:52:33.560Z,99074.72
2018-07-02T17:55:02.089Z,99072.55
2018-07-02T17:57:30.608Z,99079.67
2018-07-02T18:00:00.769Z,99072.05
2018-07-02T18:02:29.291Z,99074.23
2018-07-02T18:04:57.821Z,99070.72
2018-07-02T18:07:26.322Z,99067.69
2018-07-02T18:09:54.935Z,99058.23
2018-07-02T18:12:25.938Z,99054.14
2018-07-02T18:14:56.237Z,99060.78
2018-07-02T18:17:25.097Z,99060.70
2018-07-02T18:19:53.644Z,99056.67
2018-07-02T18:22:27.764Z,99066.13
2018-07-02T18:24:56.607Z,99067.92
2018-07-02T18:27:28.372Z,99067.36
2018-07-02T18:29:56.993Z,99065.33
2018-07-02T18:32:25.594Z,99071.34
2018-07-02T18:34:54.580Z,99069.98
2018-07-02T18:37:24.652Z,99073.11
2018-07-02T18:39:53.844Z,99073.26
2018-07-02T18:42:22.372Z,99073.98
2018-07-02T18:44:52.261Z,99087.47
2018-07-02T18:47:21.125Z,99079.84
2018-07-02T18:49:51.711Z,99079.88
2018-07-02T18:52:21.204Z,99078.17
2018-07-02T18:54:50.751Z,99079.23
2018-07-02T18:57:19.345Z,99081.02
2018-07-02T18:59:48.642Z,99086.48
2018-07-02T19:02:19.199Z,99086.27
2018-07-02T19:04:51.941Z,99088.95
2018-07-02T19:07:21.905Z,99086.24
2018-07-02T19:09:57.600Z,99090.51
2018-07-02T19:12:26.887Z,99093.12
2018-07-02T19:14:55.601Z,99088.27
2018-07-02T19:17:24.436Z,99088.66
2018-07-02T19:19:53.496Z,99096.78
2018-07-02T19:22:23.482Z,99093.09
2018-07-02T19:24:53.677Z,99093.48
2018-07-02T19:27:23.578Z,99097.09
2018-07-02T19:29:53.688Z,99096.66
2018-07-02T19:32:23.151Z,99106.14
2018-07-02T19:34:52.002Z,99103.02
2018-07-02T19:37:21.772Z,99105.11
2018-07-02T19:39:51.352Z,99109.45
2018-07-02T19:42:20.848Z,99110.41
2018-07-02T19:44:50.620Z,99112.59
2018-07-02T19:47:20.555Z,99114.11
2018-07-02T19:49:50.416Z,99116.63
2018-07-02T19:52:20.385Z,99119.81
2018-07-02T19:54:50.823Z,99125.55
2018-07-02T19:57:20.386Z,99122.81
2018-07-02T19:59:54.676Z,99124.52
2018-07-02T20:02:25.129Z,99126.84
2018-07-02T20:04:55.459Z,99133.48
2018-07-02T20:07:24.787Z,99130.13
2018-07-02T20:09:53.373Z,99136.68
2018-07-02T20:12:23.224Z,99133.45
2018-07-02T20:14:54.433Z,99137.32
2018-07-02T20:17:24.134Z,99137.83
2018-07-02T20:19:52.989Z,99150.97
2018-07-02T20:22:21.559Z,99154.18
2018-07-02T20:24:50.045Z,99155.06
2018-07-02T20:27:18.602Z,99156.53
2018-07-02T20:29:48.705Z,99147.20
2018-07-02T20:32:17.988Z,99149.75
2018-07-02T20:34:46.761Z,99154.45
2018-07-02T20:37:15.416Z,99157.33
2018-07-02T20:39:43.929Z,99153.91
2018-07-02T20:42:12.482Z,99154.64
2018-07-02T20:44:40.995Z,99152.65
2018-07-02T20:47:10.221Z,99162.69
2018-07-02T20:49:44.476Z,99164.66
2018-07-02T20:52:18.598Z,99155.48
2018-07-02T20:54:53.261Z,99164.83
2018-07-02T20:57:23.773Z,99172.52
2018-07-02T20:59:54.210Z,99174.66
2018-07-02T21:02:23.230Z,99171.98
2018-07-02T21:04:51.724Z,99172.83
2018-07-02T21:07:20.265Z,99176.17
2018-07-02T21:09:48.860Z,99174.30
2018-07-02T21:12:17.369Z,99171.31
2018-07-02T21:14:48.643Z,99171.56
2018-07-02T21:17:17.240Z,99170.23
2018-07-02T21:19:46.418Z,99174.47
2018-07-02T21:22:14.995Z,99176.75
2018-07-02T21:24:44.238Z,99173.26
2018-07-02T21:27:12.860Z,99178.66
2018-07-02T21:29:41.401Z,99180.66
2018-07-02T21:32:09.962Z,99189.36
2018-07-02T21:34:38.552Z,99188.14
2018-07-02T21:37:11.675Z,99186.84
2018-07-02T21:39:42.379Z,99187.41
2018-07-02T21:42:11.859Z,99190.50
2018-07-02T21:44:42.178Z,99196.18
2018-07-02T21:47:12.878Z,99197.40
2018-07-02T21:49:44.242Z,99206.80
2018-07-02T21:52:12.840Z,99203.66
2018-07-02T21:54:42.782Z,99202.18
2018-07-02T21:57:11.552Z,99207.25
2018-07-02T21:59:40.823Z,99212.38
2018-07-02T22:02:12.185Z,99213.01
2018-07-02T22:04:49.343Z,99220.69
2018-07-02T22:07:18.113Z,99219.19
2018-07-02T22:09:47.698Z,99222.13
2018-07-02T22:12:18.608Z,99225.64
2018-07-02T22:14:50.863Z,99230.01
2018-07-02T22:17:24.315Z,99233.78
2018-07-02T22:19:55.826Z,99234.24
2018-07-02T22:22:30.245Z,99234.52
2018-07-02T22:25:01.106Z,99221.05
2018-07-02T22:27:30.892Z,99243.48
2018-07-02T22:30:00.321Z,99244.55
2018-07-02T22:32:30.901Z,99238.91
2018-07-02T22:35:04.328Z,99253.33
2018-07-02T22:37:37.230Z,99252.41
2018-07-02T22:40:08.351Z,99253.18
2018-07-02T22:42:39.301Z,99250.38
2018-07-02T22:45:08.802Z,99247.72
2018-07-02T22:47:39.801Z,99250.88
2018-07-02T22:50:11.562Z,99249.66
2018-07-02T22:52:43.162Z,99249.09
2018-07-02T22:55:14.027Z,99249.38
2018-07-02T22:57:42.748Z,99249.62
2018-07-02T23:00:11.280Z,99246.39
2018-07-02T23:02:43.360Z,99242.44
2018-07-02T23:05:14.830Z,99242.88
2018-07-02T23:07:47.407Z,99243.02
2018-07-02T23:10:20.514Z,99238.78
2018-07-02T23:12:51.191Z,99242.80
2018-07-02T23:15:23.697Z,99244.70
2018-07-02T23:17:53.969Z,99248.50
2018-07-02T23:20:23.189Z,99243.91
2018-07-02T23:23:03.404Z,99237.02
2018-07-02T23:25:33.569Z,99225.24
2018-07-02T23:28:05.384Z,99234.33
2018-07-02T23:30:34.977Z,99228.58
2018-07-02T23:33:06.246Z,99230.41
2018-07-02T23:35:37.061Z,99225.27
2018-07-02T23:38:10.642Z,99232.70
2018-07-02T23:40:42.817Z,99226.41
2018-07-02T23:43:12.717Z,99220.30
2018-07-02T23:45:45.283Z,99221.25
2018-07-02T23:48:16.158Z,99221.77
2018-07-02T23:50:50.395Z,99227.08
2018-07-02T23:53:20.706Z,99219.49
2018-07-02T23:55:52.268Z,99222.01
2018-07-02T23:58:24.009Z,99220.23
